Nearby METAR Reports

 

KRYN - Tucson/Ryan Fld, Arizona, USA
Distance from station: SSW 16mi, 26km
Updated: Wed, 27-Jan-2021 7:45pm MST
NOT Current
Clear
Clear
 Wind from E
Wind: E 15 mph , 24 km/h
Temperature: 52°F , 11°C
Dew Point: 32°F , 0°C
Humidity: 47%
Barometer: 30.13 inHg , 1020.3 hPa
Clouds: Clear
Visibility: 10 miles , 16 km
2021/01/28 02:45 KRYN 280245Z 09013KT 10SM CLR 11/00 A3013 RMK LAST
KTUS - Tucson, Arizona, USA
Distance from station: SSE 18mi, 28km
Updated: Thu, 28-Jan-2021 4:53am MST
Clear
Clear
 Wind from SE
Wind: SE 21 mph , 33 km/h
Temperature: 52°F , 11°C
Dew Point: 27°F , -3°C
Humidity: 38%
Barometer: 30.08 inHg , 1018.6 hPa
Clouds: Clear
Visibility: 10 miles , 16 km
2021/01/28 11:53 KTUS 281153Z 13018KT 10SM CLR 11/M03 A3008 RMK AO2 PK WND 12029/1103 SLP164 T01111033 10117 20106 58008
 
KDMA - Davis/Tucson, Arizona, USA
Distance from station: SE 18mi, 29km
Updated: Thu, 28-Jan-2021 4:56am MST
Overcast
Overcast
 Wind from ESE
Wind: ESE 13 mph , 20 km/h
Temperature: 48°F , 9°C
Wind Chill: 43°F , 6°C
Dew Point: 27°F , -3°C
Humidity: 43%
Barometer: 30.06 inHg , 1017.9 hPa
Clouds: Overcast
Visibility: 10 miles , 16 km
Cloud details: Overcast 18000 ft
2021/01/28 11:56 KDMA 281156Z AUTO 11011KT 10SM OVC180 09/M03 A3006 RMK AO2 SLP163 T00891030 10097 20080 57008 FZRANO $
KCGZ - Casa Granda, Arizona, USA
Distance from station: NW 57mi, 92km
Updated: Thu, 28-Jan-2021 4:56am MST
Clear
Clear
 Wind from E
Wind: E 16 mph , 26 km/h
Temperature: 52°F , 11°C
Dew Point: 27°F , -3°C
Humidity: 38%
Barometer: 30.06 inHg , 1017.9 hPa
Clouds: Clear
Visibility: 10 miles , 16 km
2021/01/28 11:56 KCGZ 281156Z AUTO 08014KT 10SM CLR 11/M03 A3006 RMK AO2 SLP176 6//// 7//// T01061028 10111 20106 58015
 
KALK - Pioneer Airfield, Arizona, USA
Distance from station: SE 65mi, 104km
Updated: Thu, 28-Jan-2021 4:56am MST
Clear
Clear
 Wind from SE
Wind: SE 6 mph , 9 km/h
Temperature: 34°F , 1°C
Wind Chill: 29°F , -2°C
Dew Point: 27°F , -3°C
Humidity: 75%
Barometer: 30.16 inHg , 1021.3 hPa
Clouds: Clear
Visibility: 10 miles , 16 km
2021/01/28 11:56 KALK 281156Z AUTO 13005KT 10SM CLR 01/M03 A3016 RMK AO2 SLP181 T00061028 10022 20000 56005
KOLS - Nogales, Arizona, USA
Distance from station: S 67mi, 108km
Updated: Thu, 28-Jan-2021 4:54am MST
Clear
Clear
 Wind from NE
Wind: NE 8 mph , 13 km/h
Temperature: 39°F , 4°C
Wind Chill: 33°F , 1°C
Dew Point: 30°F , -1°C
Humidity: 70%
Barometer: 30.08 inHg , 1018.6 hPa
Clouds: Clear
Visibility: 10 miles , 16 km
2021/01/28 11:54 KOLS 281154Z AUTO 04007KT 10SM CLR 04/M01 A3008 RMK AO2 SLP165 T00441011 10050 20028 58007
 
KFHU - Fort Huachuca, Arizona, USA
Distance from station: SE 69mi, 110km
Updated: Thu, 28-Jan-2021 4:58am MST
Partly cloudy
Partly cloudy
 Wind from calm
Wind: Calm
Temperature: 34°F , 1°C
Dew Point: 27°F , -3°C
Humidity: 75%
Barometer: 30.15 inHg , 1021 hPa
Clouds: Partly cloudy
Visibility: 10 miles , 16 km
Cloud details: Partly cloudy 18000 ft
2021/01/28 11:58 KFHU 281158Z 00000KT 10SM SCT180 01/M03 A3015 RMK SLPNO WND ALSTG DATA ESTMD
KIWA - Chandler/Mesa, Arizona, USA
Distance from station: NNW 73mi, 117km
Updated: Thu, 28-Jan-2021 4:50am MST
Mostly cloudy
Mostly cloudy
 Wind from ESE
Wind: ESE 3 mph , 6 km/h
Temperature: 45°F , 7°C
Dew Point: 32°F , 0°C
Humidity: 61%
Barometer: 30.07 inHg , 1018.3 hPa
Clouds: Mostly cloudy
Visibility: 10 miles , 16 km
Cloud details: Mostly cloudy 25000 ft
2021/01/28 11:50 KIWA 281150Z 12003KT 10SM BKN250 07/00 A3007